Time;durP1;ratioP1;P1;durP2;ratioP2;P2;SDS_P1;SDS_P2;PMS_P1;PMS_P2;Temp;Humidity;BMP_temperature;BMP_pressure;BME280_temperature;BME280_humidity;BME280_pressure;Samples;Min_cycle;Max_cycle;Signal;HPM_P1;HPM_P2
2022/06/14 00:00:54;;;;;;;8.95;8.02;;;;;;;20.70;100.00;98067.69;4995043;28;20663;-54
2022/06/14 00:03:24;;;;;;;8.90;8.10;;;;;;;20.65;100.00;98063.97;4995107;28;20682;-54
2022/06/14 00:05:50;;;;;;;8.43;6.85;;;;;;;20.72;100.00;98065.72;4994968;28;20624;-54
2022/06/14 00:08:18;;;;;;;9.10;7.10;;;;;;;20.75;100.00;98067.97;4994796;28;20194;-53
2022/06/14 00:10:43;;;;;;;7.95;7.18;;;;;;;20.76;100.00;98063.53;4995032;28;20202;-54
2022/06/14 00:13:10;;;;;;;9.75;7.53;;;;;;;20.71;100.00;98061.44;4994780;28;20690;-54
2022/06/14 00:15:36;;;;;;;9.32;8.45;;;;;;;20.71;100.00;98058.00;4995035;28;20700;-54
2022/06/14 00:18:02;;;;;;;8.35;7.55;;;;;;;20.79;100.00;98058.75;4994751;28;20179;-54
2022/06/14 00:20:28;;;;;;;8.32;7.45;;;;;;;20.75;100.00;98054.03;4994592;28;20666;-54
2022/06/14 00:22:54;;;;;;;8.27;7.47;;;;;;;20.70;100.00;98051.09;4994651;28;20671;-54
2022/06/14 00:25:29;;;;;;;12.20;8.27;;;;;;;20.67;100.00;98054.06;4995198;28;20359;-54
2022/06/14 00:27:55;;;;;;;7.88;7.15;;;;;;;20.72;100.00;98054.38;4994759;28;20163;-54
2022/06/14 00:30:22;;;;;;;11.27;8.27;;;;;;;20.79;100.00;98057.91;4994551;28;20254;-54
2022/06/14 00:32:48;;;;;;;12.02;8.02;;;;;;;20.80;100.00;98056.94;4994373;28;20683;-54
2022/06/14 00:35:14;;;;;;;10.63;8.23;;;;;;;20.70;100.00;98051.91;4994418;28;20175;-54
2022/06/14 00:37:40;;;;;;;9.98;7.57;;;;;;;20.66;100.00;98057.69;4994485;28;20182;-54
2022/06/14 00:40:07;;;;;;;14.02;7.75;;;;;;;20.62;100.00;98049.34;4994448;28;20189;-54
2022/06/14 00:42:33;;;;;;;9.05;7.78;;;;;;;20.59;100.00;98054.97;4994228;28;20175;-54
2022/06/14 00:45:08;;;;;;;11.10;7.88;;;;;;;20.58;100.00;98058.56;4994210;28;20255;-53
2022/06/14 00:47:42;;;;;;;11.50;8.32;;;;;;;20.64;100.00;98059.69;4994416;28;20210;-54
2022/06/14 00:50:16;;;;;;;8.80;7.88;;;;;;;20.64;100.00;98062.31;4994357;28;20170;-54
2022/06/14 00:52:51;;;;;;;8.77;7.88;;;;;;;20.64;100.00;98062.31;4994281;28;20222;-54
2022/06/14 00:55:23;;;;;;;8.57;7.70;;;;;;;20.62;100.00;98064.28;5008798;28;20245;-54
2022/06/14 00:58:00;;;;;;;8.98;8.18;;;;;;;20.57;100.00;98072.72;5009282;28;20266;-53
2022/06/14 01:00:31;;;;;;;15.27;8.02;;;;;;;20.61;100.00;98084.53;4993977;28;20238;-54
2022/06/14 01:03:03;;;;;;;9.50;7.90;;;;;;;20.54;100.00;98088.03;5008831;28;20201;-54
2022/06/14 01:08:22;;;;;;;9.75;7.47;;;;;;;20.57;100.00;98091.13;5006903;28;20222;-53
2022/06/14 01:10:48;;;;;;;12.52;8.35;;;;;;;20.49;100.00;98095.63;5008784;28;20651;-53
2022/06/14 01:13:17;;;;;;;12.70;8.93;;;;;;;20.41;100.00;98098.31;4993639;28;20635;-54
2022/06/14 01:15:44;;;;;;;12.48;8.77;;;;;;;20.13;100.00;98086.63;4993790;28;20572;-54
2022/06/14 01:18:12;;;;;;;9.52;8.60;;;;;;;20.03;100.00;98091.25;4993860;28;20186;-53
2022/06/14 01:20:38;;;;;;;13.15;8.50;;;;;;;19.71;100.00;98084.31;4993524;28;20655;-53
2022/06/14 01:23:09;;;;;;;15.88;9.90;;;;;;;19.47;100.00;98083.59;4993554;28;20202;-53
2022/06/14 01:25:40;;;;;;;10.98;9.77;;;;;;;19.34;100.00;98073.63;4993465;28;20667;-53
2022/06/14 01:28:06;;;;;;;11.38;8.98;;;;;;;19.48;100.00;98078.16;4993504;28;20202;-54
2022/06/14 01:30:35;;;;;;;12.98;9.68;;;;;;;19.53;100.00;98077.69;4992232;28;20170;-53
2022/06/14 01:33:24;;;;;;;15.38;9.20;;;;;;;19.59;100.00;98074.38;4993200;28;20222;-53
2022/06/14 01:36:06;;;;;;;15.15;9.05;;;;;;;19.68;100.00;98070.72;4993319;28;20229;-53
2022/06/14 01:38:32;;;;;;;12.23;8.75;;;;;;;19.80;100.00;98062.31;4993540;28;20175;-53
2022/06/14 01:41:03;;;;;;;10.75;9.15;;;;;;;19.81;100.00;98068.38;4993250;28;20178;-53
2022/06/14 01:43:53;;;;;;;9.55;8.55;;;;;;;19.88;100.00;98061.47;4993205;28;20168;-53
2022/06/14 01:46:21;;;;;;;10.15;9.23;;;;;;;19.94;100.00;98060.78;4993699;28;20258;-53
2022/06/14 01:51:50;;;;;;;12.88;9.40;;;;;;;19.92;100.00;98054.84;4993097;28;20186;-53
2022/06/14 01:52:02;;;;;;;11.95;9.77;;;;;;;19.98;100.00;98062.88;4993007;28;20195;-53
2022/06/14 01:54:40;;;;;;;10.68;9.52;;;;;;;19.98;100.00;98054.16;4993021;28;20623;-53
2022/06/14 01:57:24;;;;;;;10.18;9.10;;;;;;;19.86;100.00;98055.53;4993017;28;20239;-53
2022/06/14 02:00:08;;;;;;;13.82;9.20;;;;;;;19.78;100.00;98063.47;4993197;28;20179;-53
2022/06/14 02:02:49;;;;;;;9.70;8.48;;;;;;;19.80;100.00;98056.22;4993291;28;20217;-53
2022/06/14 02:05:32;;;;;;;12.70;9.07;;;;;;;19.81;100.00;98069.19;4993119;28;20234;-53
2022/06/14 02:08:10;;;;;;;10.38;7.90;;;;;;;19.89;100.00;98069.16;4992615;28;20166;-54
2022/06/14 02:10:41;;;;;;;13.60;8.57;;;;;;;19.99;100.00;98077.63;4993027;28;20163;-54
2022/06/14 02:13:24;;;;;;;10.38;8.32;;;;;;;20.13;100.00;98089.25;4992749;28;20195;-54
2022/06/14 02:16:04;;;;;;;9.35;8.40;;;;;;;20.13;100.00;98091.88;4992932;28;20191;-54
2022/06/14 02:18:53;;;;;;;11.23;9.43;;;;;;;19.99;100.00;98097.84;4993027;28;20167;-54
2022/06/14 02:21:28;;;;;;;11.98;8.77;;;;;;;19.89;100.00;98091.97;4992839;28;20239;-54
2022/06/14 02:24:09;;;;;;;12.82;9.30;;;;;;;19.87;100.00;98093.97;4991461;28;20233;-54
2022/06/14 02:26:59;;;;;;;11.63;8.80;;;;;;;19.79;100.00;98096.59;4992977;28;20182;-54
2022/06/14 02:29:43;;;;;;;12.20;8.65;;;;;;;19.61;100.00;98098.63;4992736;28;20199;-54
2022/06/14 02:32:21;;;;;;;14.27;9.60;;;;;;;19.71;100.00;98088.75;5007612;28;20226;-54
2022/06/14 02:35:08;;;;;;;13.50;9.18;;;;;;;19.61;100.00;98088.13;4992889;28;20190;-54
2022/06/14 02:37:55;;;;;;;11.40;9.18;;;;;;;19.48;100.00;98087.84;5007682;28;20179;-54
2022/06/14 02:40:27;;;;;;;16.52;9.82;;;;;;;19.49;100.00;98086.88;4991329;28;20301;-54
2022/06/14 02:43:04;;;;;;;11.80;9.30;;;;;;;19.47;100.00;98087.03;4992514;28;20221;-54
2022/06/14 02:45:43;;;;;;;11.50;8.95;;;;;;;19.52;100.00;98097.03;4992727;28;20562;-54
2022/06/14 02:48:17;;;;;;;13.10;9.40;;;;;;;19.57;100.00;98086.81;4992760;28;20167;-54
2022/06/14 02:51:05;;;;;;;12.60;9.63;;;;;;;19.63;100.00;98086.16;4992719;28;20189;-54
2022/06/14 02:53:39;;;;;;;16.23;9.13;;;;;;;19.66;100.00;98077.94;4992361;28;20175;-54
2022/06/14 02:56:52;;;;;;;13.40;9.45;;;;;;;19.74;100.00;98077.91;4991184;28;20609;-54
2022/06/14 02:59:36;;;;;;;10.25;8.38;;;;;;;19.76;100.00;98078.56;4992571;28;20578;-54
2022/06/14 03:02:07;;;;;;;9.85;7.97;;;;;;;19.85;100.00;98077.53;5007490;28;20631;-54
2022/06/14 03:05:00;;;;;;;9.60;7.55;;;;;;;19.82;100.00;98085.78;4992142;28;20647;-54
2022/06/14 03:07:32;;;;;;;10.90;8.48;;;;;;;19.87;100.00;98084.25;4992514;28;20174;-54
2022/06/14 03:09:58;;;;;;;9.15;7.90;;;;;;;19.94;100.00;98082.59;5007377;28;20202;-54
2022/06/14 03:13:09;;;;;;;9.73;7.28;;;;;;;19.86;100.00;98076.53;4992150;28;20191;-54
2022/06/14 03:15:47;;;;;;;10.65;7.88;;;;;;;20.00;100.00;98078.47;4990130;28;20626;-54
2022/06/14 03:18:27;;;;;;;9.05;7.55;;;;;;;19.98;100.00;98070.75;4992017;28;20222;-54
2022/06/14 03:21:13;;;;;;;10.40;7.80;;;;;;;20.03;100.00;98073.69;4996231;28;20703;-54
2022/06/14 03:24:03;;;;;;;11.85;7.95;;;;;;;20.08;100.00;98074.03;4996031;28;20159;-54
2022/06/14 03:26:58;;;;;;;9.18;8.18;;;;;;;20.15;100.00;98074.13;4996175;28;20251;-54
2022/06/14 03:29:44;;;;;;;8.55;7.65;;;;;;;20.18;100.00;98072.00;4995922;28;20263;-54
2022/06/14 03:32:21;;;;;;;9.95;7.47;;;;;;;20.23;100.00;98068.84;4995594;28;20195;-54
2022/06/14 03:34:54;;;;;;;7.72;7.03;;;;;;;20.19;100.00;98064.94;4995661;28;20167;-54
2022/06/14 03:37:20;;;;;;;8.45;7.65;;;;;;;20.26;100.00;98077.19;4995532;28;20171;-54
2022/06/14 03:39:52;;;;;;;9.18;7.97;;;;;;;20.20;100.00;98069.19;5010615;28;20175;-54
2022/06/14 03:42:19;;;;;;;9.40;7.68;;;;;;;20.25;100.00;98080.00;4995410;28;20151;-54
2022/06/14 03:44:46;;;;;;;9.40;7.47;;;;;;;20.28;100.00;98077.03;4995392;28;20203;-54
2022/06/14 03:47:28;;;;;;;8.45;7.68;;;;;;;20.20;100.00;98075.28;4994101;28;20237;-54
2022/06/14 03:50:04;;;;;;;12.85;7.82;;;;;;;20.29;100.00;98078.66;4995324;28;20674;-54
2022/06/14 03:52:30;;;;;;;10.02;8.18;;;;;;;20.34;100.00;98078.97;4995380;28;20183;-54
2022/06/14 03:55:22;;;;;;;8.90;8.07;;;;;;;20.38;100.00;98078.44;4995257;28;20229;-55
2022/06/14 03:58:05;;;;;;;11.57;8.25;;;;;;;20.29;100.00;98071.59;4995261;28;20163;-54
2022/06/14 04:00:41;;;;;;;9.80;7.88;;;;;;;20.33;100.00;98080.75;4995102;28;20169;-54
2022/06/14 04:03:25;;;;;;;8.43;7.32;;;;;;;20.38;100.00;98072.34;4995045;28;20182;-54
2022/06/14 04:06:09;;;;;;;8.77;7.85;;;;;;;20.36;100.00;98069.09;4995284;28;20184;-55
2022/06/14 04:09:09;;;;;;;10.13;7.70;;;;;;;20.54;100.00;98067.00;4995175;28;20551;-55
2022/06/14 04:11:50;;;;;;;13.05;8.00;;;;;;;20.62;100.00;98069.56;4994803;28;20195;-55
2022/06/14 04:14:44;;;;;;;10.50;8.00;;;;;;;20.80;99.00;98077.97;4995105;28;20155;-55
2022/06/14 04:17:34;;;;;;;7.95;7.30;;;;;;;20.85;98.03;98075.63;4995095;28;20187;-55
2022/06/14 04:20:05;;;;;;;8.65;7.00;;;;;;;20.89;97.11;98083.03;4994835;28;20666;-54
2022/06/14 04:23:09;;;;;;;10.30;7.00;;;;;;;20.94;96.96;98087.75;4995000;28;20164;-55
2022/06/14 04:25:42;;;;;;;8.32;7.22;;;;;;;20.98;96.40;98086.41;4994684;28;20167;-55
2022/06/14 04:28:22;;;;;;;9.75;7.60;;;;;;;20.91;97.92;98085.47;4994915;28;20167;-55
2022/06/14 04:30:55;;;;;;;10.35;7.15;;;;;;;20.88;97.62;98085.78;4993957;28;20166;-55
2022/06/14 04:33:28;;;;;;;8.73;6.72;;;;;;;20.82;98.63;98086.50;4994450;28;20194;-55
2022/06/14 04:36:10;;;;;;;10.50;7.50;;;;;;;20.89;98.37;98092.72;4994509;28;20257;-52
2022/06/14 04:38:46;;;;;;;9.23;7.68;;;;;;;21.02;97.07;98095.56;4994655;28;20163;-52
2022/06/14 04:41:35;;;;;;;10.35;7.68;;;;;;;21.15;97.07;98101.06;4994740;28;20158;-52
2022/06/14 04:44:06;;;;;;;8.75;7.53;;;;;;;21.03;97.91;98105.13;4994441;28;20646;-52
2022/06/14 04:46:37;;;;;;;12.20;7.55;;;;;;;21.22;95.64;98104.59;4994201;28;20167;-52
2022/06/14 04:49:17;;;;;;;9.30;7.57;;;;;;;21.30;95.82;98107.16;4994379;28;20698;-52
2022/06/14 04:51:51;;;;;;;8.85;7.22;;;;;;;21.36;95.85;98107.25;4994178;28;20285;-52
2022/06/14 04:54:34;;;;;;;7.55;6.85;;;;;;;21.48;96.56;98105.00;4994384;28;20171;-52
2022/06/14 04:57:12;;;;;;;8.32;7.63;;;;;;;21.46;93.72;98113.09;5009084;28;20175;-54
2022/06/14 04:59:41;;;;;;;9.82;6.80;;;;;;;21.54;94.85;98106.91;4994047;28;20159;-54
2022/06/14 05:02:15;;;;;;;7.57;6.90;;;;;;;21.64;93.85;98110.09;4994146;28;20338;-54
2022/06/14 05:04:48;;;;;;;8.02;7.22;;;;;;;21.77;93.32;98116.41;4993925;28;20361;-54
2022/06/14 05:07:24;;;;;;;13.05;7.47;;;;;;;21.89;92.29;98124.66;4993875;28;20178;-54
2022/06/14 05:09:59;;;;;;;11.18;7.82;;;;;;;21.89;93.65;98124.66;4993786;28;20229;-54
2022/06/14 05:12:35;;;;;;;7.97;7.13;;;;;;;22.04;93.09;98128.09;4993536;28;20259;-54
2022/06/14 05:15:10;;;;;;;8.63;7.53;;;;;;;22.21;92.58;98132.97;4994159;28;20159;-54
2022/06/14 05:17:47;;;;;;;10.02;7.45;;;;;;;22.37;90.79;98131.97;4993929;28;20322;-55
2022/06/14 05:20:19;;;;;;;10.50;7.55;;;;;;;22.46;90.17;98128.22;4993820;28;20167;-52
2022/06/14 05:22:59;;;;;;;7.55;6.82;;;;;;;22.45;89.51;98131.88;4993583;28;20636;-53
2022/06/14 05:25:40;;;;;;;9.10;7.88;;;;;;;22.60;89.15;98132.66;4993724;28;20163;-53
2022/06/14 05:28:10;;;;;;;8.90;7.43;;;;;;;22.65;89.69;98138.16;4992515;28;20163;-54
2022/06/14 05:30:45;;;;;;;9.50;7.50;;;;;;;22.78;89.06;98139.13;4993924;28;20187;-53
2022/06/14 05:33:34;;;;;;;7.82;7.03;;;;;;;22.84;88.85;98137.56;4993586;28;20226;-54
2022/06/14 05:36:18;;;;;;;8.38;7.50;;;;;;;23.00;90.24;98138.13;4993215;28;20191;-53
2022/06/14 05:39:01;;;;;;;9.40;7.32;;;;;;;23.06;89.20;98141.81;4993581;28;20548;-54
2022/06/14 05:41:35;;;;;;;11.18;6.93;;;;;;;23.25;87.20;98144.66;4993283;28;20195;-53
2022/06/14 05:44:00;;;;;;;8.30;7.10;;;;;;;23.29;86.85;98137.16;4992628;28;20179;-53
2022/06/14 05:46:33;;;;;;;8.85;7.47;;;;;;;23.37;85.45;98148.41;4993315;28;20186;-54
2022/06/14 05:49:21;;;;;;;8.48;7.28;;;;;;;23.39;86.04;98150.88;4993386;28;20678;-54
2022/06/14 05:52:08;;;;;;;10.20;7.07;;;;;;;23.48;85.18;98155.81;4993038;28;20194;-54
2022/06/14 05:54:59;;;;;;;10.85;7.38;;;;;;;23.41;82.85;98151.47;4993038;28;20201;-54
2022/06/14 05:57:54;;;;;;;7.70;6.93;;;;;;;23.49;84.72;98154.81;4993208;28;20188;-54
2022/06/14 06:00:19;;;;;;;13.50;7.22;;;;;;;23.61;85.62;98163.03;4992099;28;20673;-54
2022/06/14 06:02:49;;;;;;;10.15;7.80;;;;;;;23.74;83.58;98162.09;4993082;28;20190;-54
2022/06/14 06:05:17;;;;;;;9.32;8.20;;;;;;;23.85;83.83;98161.56;4993137;28;20322;-54
2022/06/14 06:08:14;;;;;;;8.55;6.93;;;;;;;23.91;82.27;98161.81;4993199;28;20207;-54
2022/06/14 06:10:44;;;;;;;7.95;7.20;;;;;;;23.98;81.96;98165.31;4992183;28;20234;-54
2022/06/14 06:13:16;;;;;;;11.52;7.55;;;;;;;23.98;81.77;98168.78;4992739;28;20206;-54
2022/06/14 06:15:48;;;;;;;8.50;7.05;;;;;;;24.00;79.09;98164.13;4992244;28;20168;-54
2022/06/14 06:18:28;;;;;;;7.72;6.93;;;;;;;24.06;80.80;98168.63;4992888;28;20160;-54
2022/06/14 06:21:02;;;;;;;7.65;6.95;;;;;;;24.03;80.06;98175.13;4992787;28;20249;-54
2022/06/14 06:23:38;;;;;;;7.68;6.70;;;;;;;24.04;79.45;98166.16;4992684;28;20246;-54
2022/06/14 06:26:05;;;;;;;11.05;7.35;;;;;;;24.02;80.47;98171.84;4992864;28;20170;-54
2022/06/14 06:28:40;;;;;;;9.43;7.60;;;;;;;24.13;79.35;98178.22;4992950;28;20233;-54
2022/06/14 06:31:06;;;;;;;8.43;7.40;;;;;;;24.24;79.60;98172.38;4992931;28;20163;-54
2022/06/14 06:33:38;;;;;;;7.78;6.97;;;;;;;24.27;80.92;98173.81;4992788;28;20207;-54
2022/06/14 06:36:31;;;;;;;7.35;6.65;;;;;;;24.34;80.44;98172.03;4991355;28;20183;-53
2022/06/14 06:39:05;;;;;;;12.73;7.47;;;;;;;24.38;81.64;98168.78;4992695;28;20266;-54
2022/06/14 06:41:51;;;;;;;10.63;7.25;;;;;;;24.51;81.68;98170.66;4992584;28;20597;-54
2022/06/14 06:44:38;;;;;;;10.63;7.13;;;;;;;24.62;81.92;98170.94;4992628;28;20548;-54
2022/06/14 06:47:10;;;;;;;7.60;6.90;;;;;;;24.72;82.12;98181.97;4992471;28;20171;-54
2022/06/14 06:50:17;;;;;;;10.05;7.30;;;;;;;24.87;80.71;98179.97;4992523;28;20178;-54
2022/06/14 06:52:54;;;;;;;9.25;6.93;;;;;;;24.89;79.71;98177.94;4990306;28;20198;-54
2022/06/14 06:55:47;;;;;;;7.57;6.68;;;;;;;24.85;79.35;98167.94;4993894;28;20172;-54
2022/06/14 06:58:34;;;;;;;8.13;7.32;;;;;;;24.97;80.54;98175.09;4995590;28;20214;-54
2022/06/14 07:01:05;;;;;;;11.63;7.68;;;;;;;25.02;80.52;98185.91;4996567;28;20167;-54
2022/06/14 07:03:45;;;;;;;7.95;6.40;;;;;;;25.16;80.59;98179.63;4996000;28;20207;-54
2022/06/14 07:06:20;;;;;;;7.78;7.00;;;;;;;25.28;79.98;98172.72;4996099;28;20529;-54
2022/06/14 07:08:55;;;;;;;9.38;7.22;;;;;;;25.39;79.93;98177.44;4996355;28;20163;-54
2022/06/14 07:11:29;;;;;;;10.05;7.53;;;;;;;25.52;80.45;98174.75;4995927;28;20194;-54
2022/06/14 07:13:59;;;;;;;8.90;7.50;;;;;;;25.65;78.19;98180.06;5011087;28;20170;-54
2022/06/14 07:16:31;;;;;;;7.53;6.82;;;;;;;25.76;76.60;98174.13;4995965;28;20180;-54
2022/06/14 07:19:28;;;;;;;6.05;5.50;;;;;;;25.83;73.53;98193.47;4995899;28;20175;-54
2022/06/14 07:22:10;;;;;;;5.72;5.20;;;;;;;26.04;70.56;98190.63;4996125;28;20523;-54
2022/06/14 07:24:51;;;;;;;5.32;4.93;;;;;;;26.11;68.37;98175.50;4996073;28;20178;-54
2022/06/14 07:27:21;;;;;;;5.32;4.90;;;;;;;26.16;66.84;98186.31;5010835;28;20178;-54
2022/06/14 07:30:02;;;;;;;4.97;4.40;;;;;;;26.21;68.12;98183.88;4996134;28;20536;-54
2022/06/14 07:32:49;;;;;;;7.80;4.65;;;;;;;26.28;66.17;98175.84;4995835;28;20199;-54
2022/06/14 07:35:19;;;;;;;7.18;4.88;;;;;;;26.36;65.37;98188.91;4995853;28;20163;-54
2022/06/14 07:37:56;;;;;;;5.03;4.68;;;;;;;26.37;65.50;98185.22;4995553;28;20175;-54
2022/06/14 07:40:32;;;;;;;5.07;4.60;;;;;;;26.47;65.79;98185.59;4995973;28;20162;-54
2022/06/14 07:43:13;;;;;;;4.97;4.43;;;;;;;26.53;65.65;98188.22;4995758;28;20634;-54
2022/06/14 07:45:42;;;;;;;5.53;4.65;;;;;;;26.63;67.78;98190.44;5010473;28;20581;-54
2022/06/14 07:48:14;;;;;;;8.63;5.13;;;;;;;26.68;65.04;98188.81;4995369;28;20183;-54
2022/06/14 07:50:43;;;;;;;4.40;4.00;;;;;;;26.76;64.91;98185.91;4994699;28;20643;-54
2022/06/14 07:53:14;;;;;;;5.38;4.40;;;;;;;26.82;65.28;98187.69;4995214;28;20203;-54
2022/06/14 07:55:50;;;;;;;5.22;4.22;;;;;;;26.88;62.96;98188.72;4995600;28;20178;-54
2022/06/14 07:58:23;;;;;;;4.63;4.22;;;;;;;26.97;60.95;98188.22;4995487;28;20302;-53
2022/06/14 08:01:08;;;;;;;4.28;3.97;;;;;;;27.02;61.10;98185.75;4995117;28;20170;-54
2022/06/14 08:04:06;;;;;;;4.50;4.10;;;;;;;27.06;60.05;98180.81;4994926;28;20214;-54
2022/06/14 08:06:40;;;;;;;4.53;4.18;;;;;;;27.10;61.59;98182.84;4994118;28;20167;-54
2022/06/14 08:09:05;;;;;;;6.15;4.65;;;;;;;27.18;58.63;98190.56;4995104;28;20163;-54
2022/06/14 08:11:45;;;;;;;4.20;3.90;;;;;;;27.20;57.41;98180.56;4994850;28;20182;-54
2022/06/14 08:14:17;;;;;;;4.70;4.30;;;;;;;27.25;59.19;98186.03;4995055;28;20194;-54
2022/06/14 08:16:45;;;;;;;7.63;4.40;;;;;;;27.26;59.05;98185.00;4994411;28;20529;-54
2022/06/14 08:19:25;;;;;;;6.13;4.53;;;;;;;27.27;58.25;98183.97;5009827;28;20189;-54
2022/06/14 08:22:14;;;;;;;5.30;4.63;;;;;;;27.31;58.17;98190.50;4994839;28;20648;-54
2022/06/14 08:24:45;;;;;;;5.45;4.22;;;;;;;27.40;57.44;98185.72;4994759;28;20200;-54
2022/06/14 08:27:24;;;;;;;5.53;4.18;;;;;;;27.47;57.65;98184.63;4994717;28;20160;-54
2022/06/14 08:30:06;;;;;;;5.40;5.00;;;;;;;27.54;56.40;98173.94;4995084;28;20166;-54
2022/06/14 08:32:37;;;;;;;5.07;4.65;;;;;;;27.55;56.86;98173.75;4994479;28;20191;-54
2022/06/14 08:35:09;;;;;;;5.10;4.68;;;;;;;27.63;56.56;98173.44;4994549;28;20159;-54
2022/06/14 08:37:51;;;;;;;4.63;4.28;;;;;;;27.67;57.21;98179.13;4994707;28;20238;-54
2022/06/14 08:40:26;;;;;;;6.65;4.78;;;;;;;27.70;58.59;98176.84;4994870;28;20250;-54
2022/06/14 08:42:57;;;;;;;5.40;4.28;;;;;;;27.78;55.20;98181.94;4994370;28;20174;-54
2022/06/14 08:45:52;;;;;;;4.40;4.10;;;;;;;27.83;54.96;98181.28;4994486;28;20167;-54
2022/06/14 08:48:39;;;;;;;4.82;4.50;;;;;;;27.88;55.38;98176.91;4988744;28;20233;-54
2022/06/14 08:51:22;;;;;;;5.75;4.82;;;;;;;27.90;55.72;98179.38;4994152;28;20751;-54
2022/06/14 08:54:09;;;;;;;4.82;4.40;;;;;;;27.95;56.43;98172.38;4994143;28;20216;-54
2022/06/14 08:57:11;;;;;;;5.03;4.63;;;;;;;28.02;57.29;98172.28;4994146;28;20159;-54
2022/06/14 09:00:02;;;;;;;5.80;4.88;;;;;;;28.05;58.54;98171.84;4994054;28;20205;-54
2022/06/14 09:02:33;;;;;;;5.05;4.20;;;;;;;28.12;54.82;98184.06;4994106;28;20194;-54
2022/06/14 09:05:17;;;;;;;4.78;4.38;;;;;;;28.13;52.68;98169.72;4993947;28;20195;-54
2022/06/14 09:08:04;;;;;;;4.95;4.50;;;;;;;28.15;54.80;98175.63;4993865;28;20644;-54
2022/06/14 09:10:47;;;;;;;5.25;4.70;;;;;;;28.22;53.74;98173.69;4993781;28;20718;-54
2022/06/14 09:13:33;;;;;;;4.25;3.95;;;;;;;28.32;56.06;98176.66;4993781;28;20249;-54
2022/06/14 09:16:36;;;;;;;5.30;4.80;;;;;;;28.38;56.03;98157.16;4993760;28;20247;-54
2022/06/14 09:19:23;;;;;;;4.47;4.07;;;;;;;28.44;56.05;98166.91;4993640;28;20185;-54
2022/06/14 09:22:02;;;;;;;5.40;4.55;;;;;;;28.51;56.07;98162.31;4993820;28;20167;-54
2022/06/14 09:24:27;;;;;;;5.70;4.15;;;;;;;28.64;55.35;98164.81;4993884;28;20217;-54
2022/06/14 09:27:25;;;;;;;4.57;3.80;;;;;;;28.67;54.75;98163.53;4993718;28;20186;-55
2022/06/14 09:30:12;;;;;;;5.45;4.25;;;;;;;28.70;53.54;98155.94;4984295;28;20278;-54
2022/06/14 09:33:21;;;;;;;6.40;4.22;;;;;;;28.75;53.70;98160.56;4993263;28;20217;-54
2022/06/14 09:36:02;;;;;;;5.20;4.35;;;;;;;28.75;53.71;98161.38;4993568;28;20182;-54
2022/06/14 09:39:04;;;;;;;4.35;3.97;;;;;;;28.86;54.29;98165.16;4993253;28;20266;-54
2022/06/14 09:42:00;;;;;;;5.43;3.78;;;;;;;28.92;49.91;98170.34;4993299;28;20186;-54
2022/06/14 09:44:31;;;;;;;4.35;4.00;;;;;;;28.95;50.44;98164.63;4993172;28;20218;-54
2022/06/14 09:47:21;;;;;;;6.00;4.20;;;;;;;29.03;49.73;98160.81;4993129;28;20194;-54
2022/06/14 09:50:03;;;;;;;4.72;4.32;;;;;;;29.07;49.13;98156.66;4993467;28;20175;-54
2022/06/14 09:53:33;;;;;;;4.45;4.20;;;;;;;29.20;50.52;98157.25;4993090;28;20191;-54
2022/06/14 09:56:36;;;;;;;4.60;4.20;;;;;;;29.33;47.59;98156.25;4952164;29;20251;-54
2022/06/14 09:59:10;;;;;;;3.95;3.55;;;;;;;29.41;47.51;98154.06;4951801;28;20601;-54
2022/06/14 10:01:40;;;;;;;5.03;4.10;;;;;;;29.43;48.92;98143.97;4983190;28;20680;-54
2022/06/14 10:04:34;;;;;;;4.50;4.10;;;;;;;29.54;49.13;98148.53;4992803;28;20231;-54
2022/06/14 10:07:02;;;;;;;4.65;4.22;;;;;;;29.57;48.25;98148.06;4993088;28;20217;-54
2022/06/14 10:09:36;;;;;;;4.32;3.65;;;;;;;29.63;49.55;98141.81;4992893;28;20190;-54
2022/06/14 10:12:04;;;;;;;5.32;4.40;;;;;;;29.75;49.13;98137.31;4992792;28;20202;-54
2022/06/14 10:15:09;;;;;;;6.93;4.40;;;;;;;29.87;48.34;98127.44;4992755;28;20567;-54
2022/06/14 10:17:52;;;;;;;4.47;3.75;;;;;;;29.95;47.59;98129.72;4992245;28;20725;-54
2022/06/14 10:20:53;;;;;;;4.10;3.70;;;;;;;30.08;48.26;98126.00;4993332;28;20218;-54
2022/06/14 10:23:37;;;;;;;6.25;3.70;;;;;;;30.24;47.65;98122.59;4993138;28;20158;-54
2022/06/14 10:29:56;;;;;;;3.65;3.42;;;;;;;30.30;44.12;98127.00;4997018;28;20197;-54
2022/06/14 10:32:30;;;;;;;7.03;3.65;;;;;;;30.22;45.51;98125.53;4976838;28;20210;-54
2022/06/14 10:35:07;;;;;;;3.95;3.58;;;;;;;30.30;46.76;98110.97;4999056;28;20582;-54
2022/06/14 10:37:51;;;;;;;3.92;3.63;;;;;;;30.38;47.01;98111.41;4999026;28;20619;-54
2022/06/14 10:40:44;;;;;;;4.15;3.78;;;;;;;30.50;45.00;98112.19;4999106;28;20155;-54
2022/06/14 10:43:38;;;;;;;6.45;3.85;;;;;;;30.64;45.03;98112.72;4999300;28;20187;-54
2022/06/14 10:46:12;;;;;;;7.22;3.47;;;;;;;30.84;45.50;98113.91;4998961;28;20312;-54
2022/06/14 10:49:13;;;;;;;5.30;3.50;;;;;;;31.07;43.64;98105.78;4999266;28;20253;-54
2022/06/14 10:51:38;;;;;;;5.45;3.50;;;;;;;31.20;43.61;98104.69;4998478;28;20626;-54
2022/06/14 10:54:11;;;;;;;3.50;3.30;;;;;;;31.18;43.44;98110.25;4998984;28;20309;-54
2022/06/14 10:56:47;;;;;;;3.80;3.50;;;;;;;31.39;41.96;98112.22;4999203;28;20187;-54
2022/06/14 10:59:51;;;;;;;3.55;3.25;;;;;;;31.50;42.28;98118.53;4998957;28;20309;-54
2022/06/14 11:02:54;;;;;;;4.30;4.00;;;;;;;31.69;42.09;98111.84;4998954;28;20158;-54
2022/06/14 11:05:31;;;;;;;3.80;3.50;;;;;;;31.96;41.91;98102.91;4998836;28;20574;-54
2022/06/14 11:08:25;;;;;;;3.33;3.05;;;;;;;32.15;41.01;98103.41;4998723;28;20555;-54
2022/06/14 11:11:19;;;;;;;3.85;3.55;;;;;;;32.15;41.81;98112.25;4998912;28;20163;-54
2022/06/14 11:14:18;;;;;;;4.30;3.85;;;;;;;32.16;41.59;98105.84;4998883;28;20711;-54
2022/06/14 11:17:11;;;;;;;5.30;3.42;;;;;;;32.36;39.82;98097.25;4998841;28;20206;-55
2022/06/14 11:20:05;;;;;;;4.35;3.40;;;;;;;32.41;40.59;98105.34;4998740;28;20164;-54
2022/06/14 11:22:42;;;;;;;4.25;3.85;;;;;;;32.13;43.27;98111.66;4998722;28;20246;-54
2022/06/14 11:25:29;;;;;;;7.15;3.58;;;;;;;31.83;45.35;98113.94;4999028;28;20241;-55
2022/06/14 11:28:24;;;;;;;6.43;3.60;;;;;;;31.73;46.61;98108.47;4998679;28;20174;-54
2022/06/14 11:31:05;;;;;;;5.90;3.42;;;;;;;31.98;45.05;98103.47;4996514;28;20202;-54
2022/06/14 11:33:50;;;;;;;3.67;2.85;;;;;;;32.13;44.57;98098.28;4998795;28;20202;-54
2022/06/14 11:36:43;;;;;;;4.13;3.08;;;;;;;32.34;43.85;98091.34;4998638;28;20163;-55
2022/06/14 11:39:31;;;;;;;2.97;2.78;;;;;;;32.55;41.48;98110.06;4998564;28;20278;-55
2022/06/14 11:42:20;;;;;;;3.15;2.88;;;;;;;32.70;41.20;98106.75;4995789;28;20222;-55
2022/06/14 11:45:24;;;;;;;3.30;2.97;;;;;;;32.85;40.87;98112.28;4988263;28;20195;-55
2022/06/14 11:48:07;;;;;;;5.75;2.75;;;;;;;32.85;38.89;98126.50;4995199;28;20249;-55
2022/06/14 11:50:54;;;;;;;3.03;2.83;;;;;;;32.89;38.97;98130.31;4995465;28;20246;-55
2022/06/14 11:53:32;;;;;;;11.77;2.70;;;;;;;33.09;38.76;98146.56;5008636;28;20201;-55
2022/06/14 11:56:32;;;;;;;3.00;2.80;;;;;;;33.16;38.48;98168.63;4995805;28;20210;-55
2022/06/14 11:59:22;;;;;;;6.60;3.15;;;;;;;33.16;39.26;98200.81;4993149;28;20687;-55
2022/06/14 12:02:20;;;;;;;12.60;2.90;;;;;;;32.75;40.65;98214.03;4995266;28;20203;-55
2022/06/14 12:05:01;;;;;;;9.88;2.53;;;;;;;32.87;40.12;98212.84;4993879;28;20222;-55
2022/06/14 12:07:38;;;;;;;10.13;2.88;;;;;;;32.93;41.27;98216.41;4995251;28;20253;-55
2022/06/14 12:10:12;;;;;;;4.35;2.67;;;;;;;32.95;38.63;98220.44;4995172;28;20170;-55
2022/06/14 12:12:43;;;;;;;8.75;2.35;;;;;;;32.83;37.94;98232.38;4994935;28;20208;-55
2022/06/14 12:15:11;;;;;;;4.88;2.20;;;;;;;32.83;38.35;98232.38;4994856;28;20616;-55
2022/06/14 12:17:43;;;;;;;6.78;2.20;;;;;;;32.60;36.88;98228.06;4994860;28;20647;-55
2022/06/14 12:20:16;;;;;;;4.75;2.30;;;;;;;32.25;37.58;98237.47;4994807;28;20634;-55
2022/06/14 12:23:08;;;;;;;6.68;2.33;;;;;;;31.99;37.72;98240.81;4994700;28;20537;-55
2022/06/14 12:28:44;;;;;;;2.50;2.17;;;;;;;31.39;39.12;98229.91;4994935;28;20170;-55
2022/06/14 12:31:35;;;;;;;5.05;2.50;;;;;;;31.30;37.99;98220.66;4994893;28;20167;-54
2022/06/14 12:34:09;;;;;;;2.17;2.08;;;;;;;31.23;38.50;98220.00;4994470;28;20168;-55
2022/06/14 12:36:54;;;;;;;4.60;2.20;;;;;;;31.20;38.45;98217.00;4995031;28;20164;-55